sensor_id;sensor_type;location;lat;lon;timestamp;P1;durP1;ratioP1;P2;durP2;ratioP2
6354;SDS011;3210;48.708;9.030;2022-10-18T00:00:52;9.43;;;2.80;;
6354;SDS011;3210;48.708;9.030;2022-10-18T00:03:26;19.80;;;3.70;;
6354;SDS011;3210;48.708;9.030;2022-10-18T00:06:02;10.10;;;3.57;;
6354;SDS011;3210;48.708;9.030;2022-10-18T00:08:36;13.53;;;3.50;;
6354;SDS011;3210;48.708;9.030;2022-10-18T00:11:10;20.70;;;3.47;;
6354;SDS011;3210;48.708;9.030;2022-10-18T00:13:45;10.20;;;3.60;;
6354;SDS011;3210;48.708;9.030;2022-10-18T00:16:17;4.53;;;2.90;;
6354;SDS011;3210;48.708;9.030;2022-10-18T00:18:51;5.33;;;3.53;;
6354;SDS011;3210;48.708;9.030;2022-10-18T00:21:28;13.30;;;3.23;;
6354;SDS011;3210;48.708;9.030;2022-10-18T00:24:01;10.10;;;3.73;;
6354;SDS011;3210;48.708;9.030;2022-10-18T00:26:35;16.03;;;3.40;;
6354;SDS011;3210;48.708;9.030;2022-10-18T00:29:09;5.93;;;3.37;;
6354;SDS011;3210;48.708;9.030;2022-10-18T00:31:45;14.30;;;3.60;;
6354;SDS011;3210;48.708;9.030;2022-10-18T00:34:18;11.33;;;3.17;;
6354;SDS011;3210;48.708;9.030;2022-10-18T00:36:54;19.43;;;3.57;;
6354;SDS011;3210;48.708;9.030;2022-10-18T00:39:26;6.77;;;4.00;;
6354;SDS011;3210;48.708;9.030;2022-10-18T00:41:59;11.63;;;3.10;;
6354;SDS011;3210;48.708;9.030;2022-10-18T00:47:30;10.23;;;3.37;;
6354;SDS011;3210;48.708;9.030;2022-10-18T00:50:04;14.13;;;4.60;;
6354;SDS011;3210;48.708;9.030;2022-10-18T00:52:44;6.50;;;3.73;;
6354;SDS011;3210;48.708;9.030;2022-10-18T00:55:18;11.00;;;3.40;;
6354;SDS011;3210;48.708;9.030;2022-10-18T00:57:52;4.70;;;3.93;;
6354;SDS011;3210;48.708;9.030;2022-10-18T01:00:26;10.17;;;2.93;;
6354;SDS011;3210;48.708;9.030;2022-10-18T01:03:04;6.93;;;4.40;;
6354;SDS011;3210;48.708;9.030;2022-10-18T01:05:41;8.70;;;3.20;;
6354;SDS011;3210;48.708;9.030;2022-10-18T01:11:32;11.97;;;3.57;;
6354;SDS011;3210;48.708;9.030;2022-10-18T01:14:16;8.20;;;3.40;;
6354;SDS011;3210;48.708;9.030;2022-10-18T01:16:57;7.70;;;4.70;;
6354;SDS011;3210;48.708;9.030;2022-10-18T01:22:47;7.00;;;3.80;;
6354;SDS011;3210;48.708;9.030;2022-10-18T01:25:31;8.13;;;3.73;;
6354;SDS011;3210;48.708;9.030;2022-10-18T01:28:19;38.37;;;3.90;;
6354;SDS011;3210;48.708;9.030;2022-10-18T01:31:11;5.03;;;3.70;;
6354;SDS011;3210;48.708;9.030;2022-10-18T01:33:46;4.87;;;3.07;;
6354;SDS011;3210;48.708;9.030;2022-10-18T01:36:20;14.33;;;3.67;;
6354;SDS011;3210;48.708;9.030;2022-10-18T01:38:56;4.33;;;3.30;;
6354;SDS011;3210;48.708;9.030;2022-10-18T01:41:30;12.67;;;3.33;;
6354;SDS011;3210;48.708;9.030;2022-10-18T01:44:06;4.00;;;3.60;;
6354;SDS011;3210;48.708;9.030;2022-10-18T01:46:49;8.10;;;3.40;;
6354;SDS011;3210;48.708;9.030;2022-10-18T01:49:34;5.23;;;3.27;;
6354;SDS011;3210;48.708;9.030;2022-10-18T01:52:11;3.73;;;3.03;;
6354;SDS011;3210;48.708;9.030;2022-10-18T01:54:45;3.77;;;3.20;;
6354;SDS011;3210;48.708;9.030;2022-10-18T01:57:21;22.60;;;3.70;;
6354;SDS011;3210;48.708;9.030;2022-10-18T02:00:00;11.37;;;3.73;;
6354;SDS011;3210;48.708;9.030;2022-10-18T02:02:43;12.83;;;4.13;;
6354;SDS011;3210;48.708;9.030;2022-10-18T02:05:22;7.23;;;3.40;;
6354;SDS011;3210;48.708;9.030;2022-10-18T02:07:58;5.03;;;3.00;;
6354;SDS011;3210;48.708;9.030;2022-10-18T02:10:37;5.53;;;3.30;;
6354;SDS011;3210;48.708;9.030;2022-10-18T02:13:14;37.90;;;4.40;;
6354;SDS011;3210;48.708;9.030;2022-10-18T02:15:50;8.60;;;2.70;;
6354;SDS011;3210;48.708;9.030;2022-10-18T02:18:32;6.10;;;3.73;;
6354;SDS011;3210;48.708;9.030;2022-10-18T02:21:04;22.27;;;3.23;;
6354;SDS011;3210;48.708;9.030;2022-10-18T02:23:43;11.27;;;3.20;;
6354;SDS011;3210;48.708;9.030;2022-10-18T02:26:17;8.93;;;2.83;;
6354;SDS011;3210;48.708;9.030;2022-10-18T02:28:51;4.27;;;3.27;;
6354;SDS011;3210;48.708;9.030;2022-10-18T02:31:25;9.93;;;3.87;;
6354;SDS011;3210;48.708;9.030;2022-10-18T02:34:03;7.57;;;3.53;;
6354;SDS011;3210;48.708;9.030;2022-10-18T02:36:42;15.57;;;3.67;;
6354;SDS011;3210;48.708;9.030;2022-10-18T02:39:21;8.23;;;3.27;;
6354;SDS011;3210;48.708;9.030;2022-10-18T02:41:55;5.43;;;3.30;;
6354;SDS011;3210;48.708;9.030;2022-10-18T02:44:31;5.97;;;3.60;;
6354;SDS011;3210;48.708;9.030;2022-10-18T02:47:05;6.67;;;4.00;;
6354;SDS011;3210;48.708;9.030;2022-10-18T02:49:42;12.07;;;4.00;;
6354;SDS011;3210;48.708;9.030;2022-10-18T02:52:14;14.27;;;3.40;;
6354;SDS011;3210;48.708;9.030;2022-10-18T02:54:46;11.70;;;3.70;;
6354;SDS011;3210;48.708;9.030;2022-10-18T02:57:18;10.73;;;2.90;;
6354;SDS011;3210;48.708;9.030;2022-10-18T02:59:49;15.93;;;5.00;;
6354;SDS011;3210;48.708;9.030;2022-10-18T03:02:19;5.63;;;3.20;;
6354;SDS011;3210;48.708;9.030;2022-10-18T03:04:55;4.53;;;2.90;;
6354;SDS011;3210;48.708;9.030;2022-10-18T03:07:26;11.00;;;3.50;;
6354;SDS011;3210;48.708;9.030;2022-10-18T03:09:59;5.90;;;3.80;;
6354;SDS011;3210;48.708;9.030;2022-10-18T03:12:31;23.93;;;4.20;;
6354;SDS011;3210;48.708;9.030;2022-10-18T03:15:04;25.77;;;3.77;;
6354;SDS011;3210;48.708;9.030;2022-10-18T03:17:35;6.50;;;3.83;;
6354;SDS011;3210;48.708;9.030;2022-10-18T03:20:10;15.23;;;3.40;;
6354;SDS011;3210;48.708;9.030;2022-10-18T03:22:43;6.70;;;3.47;;
6354;SDS011;3210;48.708;9.030;2022-10-18T03:25:14;8.40;;;3.87;;
6354;SDS011;3210;48.708;9.030;2022-10-18T03:27:45;7.90;;;4.10;;
6354;SDS011;3210;48.708;9.030;2022-10-18T03:30:17;6.70;;;4.23;;
6354;SDS011;3210;48.708;9.030;2022-10-18T03:32:50;22.57;;;3.87;;
6354;SDS011;3210;48.708;9.030;2022-10-18T03:35:24;15.43;;;4.03;;
6354;SDS011;3210;48.708;9.030;2022-10-18T03:37:56;8.30;;;3.57;;
6354;SDS011;3210;48.708;9.030;2022-10-18T03:40:27;8.60;;;4.20;;
6354;SDS011;3210;48.708;9.030;2022-10-18T03:43:00;10.33;;;6.07;;
6354;SDS011;3210;48.708;9.030;2022-10-18T03:45:39;7.10;;;3.60;;
6354;SDS011;3210;48.708;9.030;2022-10-18T03:48:27;10.60;;;2.83;;
6354;SDS011;3210;48.708;9.030;2022-10-18T03:51:13;9.70;;;3.60;;
6354;SDS011;3210;48.708;9.030;2022-10-18T03:53:45;16.23;;;4.53;;
6354;SDS011;3210;48.708;9.030;2022-10-18T03:56:20;6.83;;;3.13;;
6354;SDS011;3210;48.708;9.030;2022-10-18T03:58:54;11.87;;;4.77;;
6354;SDS011;3210;48.708;9.030;2022-10-18T04:01:29;6.87;;;3.47;;
6354;SDS011;3210;48.708;9.030;2022-10-18T04:04:03;6.63;;;3.37;;
6354;SDS011;3210;48.708;9.030;2022-10-18T04:06:41;8.70;;;3.43;;
6354;SDS011;3210;48.708;9.030;2022-10-18T04:09:13;4.20;;;3.30;;
6354;SDS011;3210;48.708;9.030;2022-10-18T04:11:48;8.67;;;3.07;;
6354;SDS011;3210;48.708;9.030;2022-10-18T04:14:21;10.23;;;3.90;;
6354;SDS011;3210;48.708;9.030;2022-10-18T04:16:55;9.17;;;3.63;;
6354;SDS011;3210;48.708;9.030;2022-10-18T04:19:29;12.73;;;3.30;;
6354;SDS011;3210;48.708;9.030;2022-10-18T04:22:07;9.60;;;4.60;;
6354;SDS011;3210;48.708;9.030;2022-10-18T04:24:40;8.20;;;3.50;;
6354;SDS011;3210;48.708;9.030;2022-10-18T04:27:13;7.27;;;3.13;;
6354;SDS011;3210;48.708;9.030;2022-10-18T04:29:45;5.33;;;2.60;;
6354;SDS011;3210;48.708;9.030;2022-10-18T04:32:18;8.80;;;4.53;;
6354;SDS011;3210;48.708;9.030;2022-10-18T04:34:52;15.50;;;4.20;;
6354;SDS011;3210;48.708;9.030;2022-10-18T04:37:28;6.30;;;3.67;;
6354;SDS011;3210;48.708;9.030;2022-10-18T04:39:59;17.63;;;6.70;;
6354;SDS011;3210;48.708;9.030;2022-10-18T04:42:27;5.60;;;4.27;;
6354;SDS011;3210;48.708;9.030;2022-10-18T04:44:54;6.87;;;3.23;;
6354;SDS011;3210;48.708;9.030;2022-10-18T04:47:22;12.53;;;4.17;;
6354;SDS011;3210;48.708;9.030;2022-10-18T04:49:50;11.83;;;3.30;;
6354;SDS011;3210;48.708;9.030;2022-10-18T04:52:18;8.57;;;3.30;;
6354;SDS011;3210;48.708;9.030;2022-10-18T04:54:48;7.40;;;4.00;;
6354;SDS011;3210;48.708;9.030;2022-10-18T04:57:16;8.97;;;4.20;;
6354;SDS011;3210;48.708;9.030;2022-10-18T04:59:44;16.80;;;4.47;;
6354;SDS011;3210;48.708;9.030;2022-10-18T05:02:11;14.23;;;3.50;;
6354;SDS011;3210;48.708;9.030;2022-10-18T05:04:40;6.00;;;3.13;;
6354;SDS011;3210;48.708;9.030;2022-10-18T05:07:07;8.70;;;3.73;;
6354;SDS011;3210;48.708;9.030;2022-10-18T05:09:36;16.40;;;3.97;;
6354;SDS011;3210;48.708;9.030;2022-10-18T05:12:06;10.10;;;3.60;;
6354;SDS011;3210;48.708;9.030;2022-10-18T05:14:33;10.60;;;3.97;;
6354;SDS011;3210;48.708;9.030;2022-10-18T05:17:02;8.03;;;4.43;;
6354;SDS011;3210;48.708;9.030;2022-10-18T05:19:31;6.87;;;3.43;;
6354;SDS011;3210;48.708;9.030;2022-10-18T05:21:59;9.63;;;3.90;;
6354;SDS011;3210;48.708;9.030;2022-10-18T05:24:27;10.73;;;4.40;;
6354;SDS011;3210;48.708;9.030;2022-10-18T05:26:56;12.57;;;4.00;;
6354;SDS011;3210;48.708;9.030;2022-10-18T05:29:27;7.90;;;3.53;;
6354;SDS011;3210;48.708;9.030;2022-10-18T05:31:54;5.23;;;3.40;;
6354;SDS011;3210;48.708;9.030;2022-10-18T05:34:22;14.30;;;3.83;;
6354;SDS011;3210;48.708;9.030;2022-10-18T05:36:51;13.20;;;3.97;;
6354;SDS011;3210;48.708;9.030;2022-10-18T05:39:20;10.80;;;4.87;;
6354;SDS011;3210;48.708;9.030;2022-10-18T05:41:50;6.63;;;2.93;;
6354;SDS011;3210;48.708;9.030;2022-10-18T05:44:19;4.47;;;3.33;;
6354;SDS011;3210;48.708;9.030;2022-10-18T05:46:51;16.73;;;3.90;;
6354;SDS011;3210;48.708;9.030;2022-10-18T05:49:19;9.13;;;3.47;;
6354;SDS011;3210;48.708;9.030;2022-10-18T05:51:49;12.27;;;4.67;;
6354;SDS011;3210;48.708;9.030;2022-10-18T05:54:18;6.90;;;4.03;;
6354;SDS011;3210;48.708;9.030;2022-10-18T05:56:48;9.47;;;4.20;;
6354;SDS011;3210;48.708;9.030;2022-10-18T05:59:16;33.80;;;5.83;;
6354;SDS011;3210;48.708;9.030;2022-10-18T06:01:45;11.77;;;4.50;;
6354;SDS011;3210;48.708;9.030;2022-10-18T06:04:15;18.20;;;4.37;;
6354;SDS011;3210;48.708;9.030;2022-10-18T06:06:43;4.80;;;3.17;;
6354;SDS011;3210;48.708;9.030;2022-10-18T06:09:11;11.60;;;4.40;;
6354;SDS011;3210;48.708;9.030;2022-10-18T06:11:39;6.63;;;4.30;;
6354;SDS011;3210;48.708;9.030;2022-10-18T06:14:07;14.40;;;4.37;;
6354;SDS011;3210;48.708;9.030;2022-10-18T06:16:35;6.93;;;3.80;;
6354;SDS011;3210;48.708;9.030;2022-10-18T06:19:02;8.47;;;3.77;;
6354;SDS011;3210;48.708;9.030;2022-10-18T06:21:30;15.40;;;3.90;;
6354;SDS011;3210;48.708;9.030;2022-10-18T06:23:57;11.93;;;3.53;;
6354;SDS011;3210;48.708;9.030;2022-10-18T06:26:25;12.13;;;4.17;;
6354;SDS011;3210;48.708;9.030;2022-10-18T06:28:53;8.33;;;4.50;;
6354;SDS011;3210;48.708;9.030;2022-10-18T06:31:20;11.93;;;5.30;;
6354;SDS011;3210;48.708;9.030;2022-10-18T06:33:47;21.83;;;4.20;;
6354;SDS011;3210;48.708;9.030;2022-10-18T06:36:15;13.57;;;4.87;;
6354;SDS011;3210;48.708;9.030;2022-10-18T06:38:44;10.07;;;4.33;;
6354;SDS011;3210;48.708;9.030;2022-10-18T06:41:11;6.33;;;3.60;;
6354;SDS011;3210;48.708;9.030;2022-10-18T06:43:39;15.43;;;4.30;;
6354;SDS011;3210;48.708;9.030;2022-10-18T06:46:07;18.83;;;4.57;;
6354;SDS011;3210;48.708;9.030;2022-10-18T06:48:35;8.63;;;3.80;;
6354;SDS011;3210;48.708;9.030;2022-10-18T06:51:04;7.33;;;4.33;;
6354;SDS011;3210;48.708;9.030;2022-10-18T06:53:33;8.80;;;4.23;;
6354;SDS011;3210;48.708;9.030;2022-10-18T06:56:04;10.67;;;5.70;;
6354;SDS011;3210;48.708;9.030;2022-10-18T06:58:32;13.77;;;6.20;;
6354;SDS011;3210;48.708;9.030;2022-10-18T07:01:04;7.53;;;4.20;;
6354;SDS011;3210;48.708;9.030;2022-10-18T07:03:32;18.97;;;5.10;;
6354;SDS011;3210;48.708;9.030;2022-10-18T07:06:01;7.93;;;4.20;;
6354;SDS011;3210;48.708;9.030;2022-10-18T07:08:28;10.70;;;4.40;;
6354;SDS011;3210;48.708;9.030;2022-10-18T07:10:56;6.40;;;3.87;;
6354;SDS011;3210;48.708;9.030;2022-10-18T07:13:26;15.43;;;3.83;;
6354;SDS011;3210;48.708;9.030;2022-10-18T07:16:02;12.07;;;4.30;;
6354;SDS011;3210;48.708;9.030;2022-10-18T07:18:31;18.10;;;3.43;;
6354;SDS011;3210;48.708;9.030;2022-10-18T07:21:00;5.67;;;3.93;;
6354;SDS011;3210;48.708;9.030;2022-10-18T07:23:30;4.20;;;3.80;;
6354;SDS011;3210;48.708;9.030;2022-10-18T07:25:58;8.07;;;5.03;;
6354;SDS011;3210;48.708;9.030;2022-10-18T07:28:27;8.80;;;3.50;;
6354;SDS011;3210;48.708;9.030;2022-10-18T07:30:55;11.43;;;3.73;;
6354;SDS011;3210;48.708;9.030;2022-10-18T07:33:23;8.60;;;4.73;;
6354;SDS011;3210;48.708;9.030;2022-10-18T07:35:50;13.23;;;4.20;;
6354;SDS011;3210;48.708;9.030;2022-10-18T07:38:18;10.90;;;4.53;;
6354;SDS011;3210;48.708;9.030;2022-10-18T07:40:46;7.23;;;4.10;;
6354;SDS011;3210;48.708;9.030;2022-10-18T07:43:14;8.93;;;4.97;;
6354;SDS011;3210;48.708;9.030;2022-10-18T07:45:51;14.87;;;4.80;;
6354;SDS011;3210;48.708;9.030;2022-10-18T07:48:18;4.83;;;3.63;;
6354;SDS011;3210;48.708;9.030;2022-10-18T07:50:46;5.77;;;3.70;;
6354;SDS011;3210;48.708;9.030;2022-10-18T07:53:13;6.30;;;3.53;;
6354;SDS011;3210;48.708;9.030;2022-10-18T07:55:40;4.87;;;3.50;;
6354;SDS011;3210;48.708;9.030;2022-10-18T07:58:08;12.93;;;4.83;;
6354;SDS011;3210;48.708;9.030;2022-10-18T08:00:36;9.70;;;3.90;;
6354;SDS011;3210;48.708;9.030;2022-10-18T08:03:04;10.53;;;3.93;;
6354;SDS011;3210;48.708;9.030;2022-10-18T08:05:31;4.03;;;3.47;;
6354;SDS011;3210;48.708;9.030;2022-10-18T08:07:58;4.80;;;3.37;;
6354;SDS011;3210;48.708;9.030;2022-10-18T08:10:26;8.10;;;3.77;;
6354;SDS011;3210;48.708;9.030;2022-10-18T08:12:54;6.60;;;3.90;;
6354;SDS011;3210;48.708;9.030;2022-10-18T08:15:21;6.90;;;3.47;;
6354;SDS011;3210;48.708;9.030;2022-10-18T08:17:49;5.53;;;3.23;;
6354;SDS011;3210;48.708;9.030;2022-10-18T08:20:18;7.93;;;3.77;;
6354;SDS011;3210;48.708;9.030;2022-10-18T08:22:48;8.47;;;3.50;;
6354;SDS011;3210;48.708;9.030;2022-10-18T08:25:16;4.03;;;3.63;;
6354;SDS011;3210;48.708;9.030;2022-10-18T08:27:44;3.70;;;3.10;;
6354;SDS011;3210;48.708;9.030;2022-10-18T08:30:14;5.60;;;3.87;;
6354;SDS011;3210;48.708;9.030;2022-10-18T08:32:43;26.00;;;4.03;;
6354;SDS011;3210;48.708;9.030;2022-10-18T08:35:11;22.80;;;4.00;;
6354;SDS011;3210;48.708;9.030;2022-10-18T08:37:40;7.97;;;3.20;;
6354;SDS011;3210;48.708;9.030;2022-10-18T08:40:09;11.13;;;3.47;;
6354;SDS011;3210;48.708;9.030;2022-10-18T08:42:43;8.70;;;4.00;;
6354;SDS011;3210;48.708;9.030;2022-10-18T08:45:26;5.77;;;3.07;;
6354;SDS011;3210;48.708;9.030;2022-10-18T08:47:58;4.40;;;3.00;;
6354;SDS011;3210;48.708;9.030;2022-10-18T08:50:27;7.93;;;3.03;;
6354;SDS011;3210;48.708;9.030;2022-10-18T08:53:04;5.07;;;3.00;;
6354;SDS011;3210;48.708;9.030;2022-10-18T08:55:43;8.40;;;3.27;;
6354;SDS011;3210;48.708;9.030;2022-10-18T08:58:18;3.53;;;2.80;;
6354;SDS011;3210;48.708;9.030;2022-10-18T09:00:49;5.20;;;3.00;;
6354;SDS011;3210;48.708;9.030;2022-10-18T09:03:30;5.80;;;3.70;;
6354;SDS011;3210;48.708;9.030;2022-10-18T09:06:14;3.40;;;3.10;;
6354;SDS011;3210;48.708;9.030;2022-10-18T09:09:07;8.50;;;4.07;;
6354;SDS011;3210;48.708;9.030;2022-10-18T09:12:00;3.80;;;2.77;;
6354;SDS011;3210;48.708;9.030;2022-10-18T09:14:55;3.30;;;2.77;;
6354;SDS011;3210;48.708;9.030;2022-10-18T09:17:38;3.97;;;2.63;;
6354;SDS011;3210;48.708;9.030;2022-10-18T09:20:21;6.80;;;2.63;;
6354;SDS011;3210;48.708;9.030;2022-10-18T09:23:01;3.33;;;2.83;;
6354;SDS011;3210;48.708;9.030;2022-10-18T09:25:43;5.47;;;2.97;;
6354;SDS011;3210;48.708;9.030;2022-10-18T09:28:35;13.23;;;2.83;;
6354;SDS011;3210;48.708;9.030;2022-10-18T09:31:13;2.50;;;2.30;;
6354;SDS011;3210;48.708;9.030;2022-10-18T09:33:46;4.73;;;1.97;;
6354;SDS011;3210;48.708;9.030;2022-10-18T09:36:18;7.63;;;2.80;;
6354;SDS011;3210;48.708;9.030;2022-10-18T09:38:48;5.90;;;2.80;;
6354;SDS011;3210;48.708;9.030;2022-10-18T09:41:21;8.00;;;3.43;;
6354;SDS011;3210;48.708;9.030;2022-10-18T09:43:53;8.87;;;2.70;;
6354;SDS011;3210;48.708;9.030;2022-10-18T09:46:24;3.47;;;3.17;;
6354;SDS011;3210;48.708;9.030;2022-10-18T09:48:58;10.30;;;2.50;;
6354;SDS011;3210;48.708;9.030;2022-10-18T09:51:30;3.77;;;2.47;;
6354;SDS011;3210;48.708;9.030;2022-10-18T09:54:16;7.03;;;3.47;;
6354;SDS011;3210;48.708;9.030;2022-10-18T09:56:49;10.80;;;2.57;;
6354;SDS011;3210;48.708;9.030;2022-10-18T10:02:08;8.73;;;2.90;;
6354;SDS011;3210;48.708;9.030;2022-10-18T10:04:38;4.53;;;2.60;;
6354;SDS011;3210;48.708;9.030;2022-10-18T10:07:06;3.83;;;2.67;;
6354;SDS011;3210;48.708;9.030;2022-10-18T10:09:36;6.33;;;2.70;;
6354;SDS011;3210;48.708;9.030;2022-10-18T10:12:21;4.53;;;2.83;;
6354;SDS011;3210;48.708;9.030;2022-10-18T10:14:52;6.30;;;2.60;;
6354;SDS011;3210;48.708;9.030;2022-10-18T10:17:20;14.43;;;3.20;;
6354;SDS011;3210;48.708;9.030;2022-10-18T10:19:55;8.00;;;2.83;;
6354;SDS011;3210;48.708;9.030;2022-10-18T10:22:25;12.17;;;3.37;;
6354;SDS011;3210;48.708;9.030;2022-10-18T10:24:56;3.97;;;2.60;;
6354;SDS011;3210;48.708;9.030;2022-10-18T10:27:27;3.80;;;3.40;;
6354;SDS011;3210;48.708;9.030;2022-10-18T10:29:56;3.30;;;3.00;;
6354;SDS011;3210;48.708;9.030;2022-10-18T10:32:25;7.13;;;2.80;;
6354;SDS011;3210;48.708;9.030;2022-10-18T10:34:54;2.80;;;2.60;;
6354;SDS011;3210;48.708;9.030;2022-10-18T10:37:25;6.17;;;2.53;;
6354;SDS011;3210;48.708;9.030;2022-10-18T10:40:21;3.33;;;2.80;;
6354;SDS011;3210;48.708;9.030;2022-10-18T10:50:08;4.17;;;2.73;;
6354;SDS011;3210;48.708;9.030;2022-10-18T10:56:22;2.93;;;1.97;;
6354;SDS011;3210;48.708;9.030;2022-10-18T10:59:36;3.47;;;2.40;;
6354;SDS011;3210;48.708;9.030;2022-10-18T11:02:29;5.83;;;3.07;;
6354;SDS011;3210;48.708;9.030;2022-10-18T11:05:18;7.43;;;2.30;;
6354;SDS011;3210;48.708;9.030;2022-10-18T11:20:39;6.87;;;3.27;;
6354;SDS011;3210;48.708;9.030;2022-10-18T11:23:20;3.83;;;1.97;;
6354;SDS011;3210;48.708;9.030;2022-10-18T11:25:59;2.27;;;2.17;;
6354;SDS011;3210;48.708;9.030;2022-10-18T11:28:59;4.60;;;2.10;;
6354;SDS011;3210;48.708;9.030;2022-10-18T11:31:40;3.40;;;1.43;;
6354;SDS011;3210;48.708;9.030;2022-10-18T11:34:19;5.57;;;3.00;;
6354;SDS011;3210;48.708;9.030;2022-10-18T11:37:13;3.10;;;1.40;;
6354;SDS011;3210;48.708;9.030;2022-10-18T11:39:58;3.27;;;1.53;;
6354;SDS011;3210;48.708;9.030;2022-10-18T11:42:38;6.30;;;1.70;;
6354;SDS011;3210;48.708;9.030;2022-10-18T11:45:25;4.20;;;1.97;;
6354;SDS011;3210;48.708;9.030;2022-10-18T11:48:16;4.60;;;2.03;;
6354;SDS011;3210;48.708;9.030;2022-10-18T11:51:05;1.87;;;1.77;;
6354;SDS011;3210;48.708;9.030;2022-10-18T11:53:50;7.07;;;2.57;;
6354;SDS011;3210;48.708;9.030;2022-10-18T11:56:40;1.93;;;1.50;;
6354;SDS011;3210;48.708;9.030;2022-10-18T11:59:25;4.50;;;1.53;;
6354;SDS011;3210;48.708;9.030;2022-10-18T12:02:32;2.93;;;1.53;;
6354;SDS011;3210;48.708;9.030;2022-10-18T12:05:28;7.43;;;1.50;;
6354;SDS011;3210;48.708;9.030;2022-10-18T12:10:54;7.20;;;1.50;;
6354;SDS011;3210;48.708;9.030;2022-10-18T12:13:57;6.93;;;2.17;;
6354;SDS011;3210;48.708;9.030;2022-10-18T12:16:31;2.50;;;1.13;;
6354;SDS011;3210;48.708;9.030;2022-10-18T12:19:10;5.27;;;1.47;;
6354;SDS011;3210;48.708;9.030;2022-10-18T12:21:51;1.97;;;1.33;;
6354;SDS011;3210;48.708;9.030;2022-10-18T12:24:29;2.40;;;1.20;;
6354;SDS011;3210;48.708;9.030;2022-10-18T12:27:03;3.50;;;1.00;;
6354;SDS011;3210;48.708;9.030;2022-10-18T12:29:33;3.40;;;1.20;;
6354;SDS011;3210;48.708;9.030;2022-10-18T12:32:15;3.73;;;1.10;;
6354;SDS011;3210;48.708;9.030;2022-10-18T12:34:45;2.43;;;1.00;;
6354;SDS011;3210;48.708;9.030;2022-10-18T12:41:22;1.90;;;0.97;;
6354;SDS011;3210;48.708;9.030;2022-10-18T12:44:03;1.40;;;0.83;;
6354;SDS011;3210;48.708;9.030;2022-10-18T12:49:32;2.30;;;1.40;;
6354;SDS011;3210;48.708;9.030;2022-10-18T12:58:04;3.70;;;1.10;;
6354;SDS011;3210;48.708;9.030;2022-10-18T13:01:13;3.60;;;1.13;;
6354;SDS011;3210;48.708;9.030;2022-10-18T13:03:50;6.40;;;1.47;;
6354;SDS011;3210;48.708;9.030;2022-10-18T13:09:41;9.23;;;1.60;;
6354;SDS011;3210;48.708;9.030;2022-10-18T13:15:31;6.13;;;1.37;;
6354;SDS011;3210;48.708;9.030;2022-10-18T13:18:08;3.67;;;1.90;;
6354;SDS011;3210;48.708;9.030;2022-10-18T13:20:54;5.53;;;1.30;;
6354;SDS011;3210;48.708;9.030;2022-10-18T13:27:03;6.60;;;1.80;;
6354;SDS011;3210;48.708;9.030;2022-10-18T13:29:46;5.07;;;1.87;;
6354;SDS011;3210;48.708;9.030;2022-10-18T13:32:25;1.20;;;1.10;;
6354;SDS011;3210;48.708;9.030;2022-10-18T13:34:59;1.63;;;1.40;;
6354;SDS011;3210;48.708;9.030;2022-10-18T13:37:29;5.03;;;1.60;;
6354;SDS011;3210;48.708;9.030;2022-10-18T13:41:30;5.73;;;1.37;;
6354;SDS011;3210;48.708;9.030;2022-10-18T13:47:14;4.80;;;1.93;;
6354;SDS011;3210;48.708;9.030;2022-10-18T13:53:49;1.93;;;1.33;;
6354;SDS011;3210;48.708;9.030;2022-10-18T13:59:40;1.97;;;1.00;;
6354;SDS011;3210;48.708;9.030;2022-10-18T14:02:27;1.50;;;1.37;;
6354;SDS011;3210;48.708;9.030;2022-10-18T14:05:23;3.60;;;2.60;;
6354;SDS011;3210;48.708;9.030;2022-10-18T14:08:01;1.53;;;1.43;;
6354;SDS011;3210;48.708;9.030;2022-10-18T14:10:37;4.33;;;1.20;;
6354;SDS011;3210;48.708;9.030;2022-10-18T14:13:19;4.13;;;1.40;;
6354;SDS011;3210;48.708;9.030;2022-10-18T14:16:00;3.33;;;1.40;;
6354;SDS011;3210;48.708;9.030;2022-10-18T14:18:33;2.83;;;1.20;;
6354;SDS011;3210;48.708;9.030;2022-10-18T14:21:20;4.33;;;2.30;;
6354;SDS011;3210;48.708;9.030;2022-10-18T14:24:12;1.87;;;1.20;;
6354;SDS011;3210;48.708;9.030;2022-10-18T14:29:47;2.03;;;1.50;;
6354;SDS011;3210;48.708;9.030;2022-10-18T14:32:23;1.97;;;1.40;;
6354;SDS011;3210;48.708;9.030;2022-10-18T14:34:54;1.17;;;1.07;;
6354;SDS011;3210;48.708;9.030;2022-10-18T14:37:24;5.73;;;1.40;;
6354;SDS011;3210;48.708;9.030;2022-10-18T14:40:32;1.43;;;1.27;;
6354;SDS011;3210;48.708;9.030;2022-10-18T14:49:56;1.37;;;1.27;;
6354;SDS011;3210;48.708;9.030;2022-10-18T14:55:42;7.30;;;1.30;;
6354;SDS011;3210;48.708;9.030;2022-10-18T14:58:31;1.90;;;1.47;;
6354;SDS011;3210;48.708;9.030;2022-10-18T15:01:14;5.57;;;1.37;;
6354;SDS011;3210;48.708;9.030;2022-10-18T15:04:09;3.20;;;1.60;;
6354;SDS011;3210;48.708;9.030;2022-10-18T15:19:58;6.13;;;1.50;;
6354;SDS011;3210;48.708;9.030;2022-10-18T15:29:00;6.60;;;1.30;;
6354;SDS011;3210;48.708;9.030;2022-10-18T15:35:40;3.47;;;1.73;;
6354;SDS011;3210;48.708;9.030;2022-10-18T15:42:03;1.47;;;1.37;;
6354;SDS011;3210;48.708;9.030;2022-10-18T15:44:36;2.60;;;1.90;;
6354;SDS011;3210;48.708;9.030;2022-10-18T15:47:16;6.50;;;1.70;;
6354;SDS011;3210;48.708;9.030;2022-10-18T15:49:50;4.37;;;1.63;;
6354;SDS011;3210;48.708;9.030;2022-10-18T15:52:29;2.70;;;1.77;;
6354;SDS011;3210;48.708;9.030;2022-10-18T15:54:58;1.80;;;1.50;;
6354;SDS011;3210;48.708;9.030;2022-10-18T15:57:28;5.03;;;2.70;;
6354;SDS011;3210;48.708;9.030;2022-10-18T15:59:57;1.93;;;1.77;;
6354;SDS011;3210;48.708;9.030;2022-10-18T16:02:29;4.33;;;1.93;;
6354;SDS011;3210;48.708;9.030;2022-10-18T16:04:57;2.83;;;1.90;;
6354;SDS011;3210;48.708;9.030;2022-10-18T16:07:24;4.10;;;2.50;;
6354;SDS011;3210;48.708;9.030;2022-10-18T16:09:53;7.43;;;2.20;;
6354;SDS011;3210;48.708;9.030;2022-10-18T16:12:21;10.03;;;2.13;;
6354;SDS011;3210;48.708;9.030;2022-10-18T16:14:47;2.40;;;2.20;;
6354;SDS011;3210;48.708;9.030;2022-10-18T16:17:14;3.57;;;2.00;;
6354;SDS011;3210;48.708;9.030;2022-10-18T16:19:41;9.37;;;2.70;;
6354;SDS011;3210;48.708;9.030;2022-10-18T16:22:09;15.73;;;3.30;;
6354;SDS011;3210;48.708;9.030;2022-10-18T16:24:37;8.60;;;2.33;;
6354;SDS011;3210;48.708;9.030;2022-10-18T16:27:07;4.83;;;2.87;;
6354;SDS011;3210;48.708;9.030;2022-10-18T16:29:35;8.67;;;2.90;;
6354;SDS011;3210;48.708;9.030;2022-10-18T16:32:03;2.23;;;2.10;;
6354;SDS011;3210;48.708;9.030;2022-10-18T16:34:30;4.83;;;3.13;;
6354;SDS011;3210;48.708;9.030;2022-10-18T16:36:57;10.50;;;5.83;;
6354;SDS011;3210;48.708;9.030;2022-10-18T16:39:24;7.03;;;2.67;;
6354;SDS011;3210;48.708;9.030;2022-10-18T16:41:52;2.43;;;2.23;;
6354;SDS011;3210;48.708;9.030;2022-10-18T16:44:20;2.47;;;2.27;;
6354;SDS011;3210;48.708;9.030;2022-10-18T16:46:47;12.87;;;2.50;;
6354;SDS011;3210;48.708;9.030;2022-10-18T16:49:16;5.60;;;2.10;;
6354;SDS011;3210;48.708;9.030;2022-10-18T16:51:44;8.37;;;2.30;;
6354;SDS011;3210;48.708;9.030;2022-10-18T16:54:11;6.87;;;2.30;;
6354;SDS011;3210;48.708;9.030;2022-10-18T16:56:38;9.30;;;2.33;;
6354;SDS011;3210;48.708;9.030;2022-10-18T16:59:05;5.50;;;2.20;;
6354;SDS011;3210;48.708;9.030;2022-10-18T17:01:34;2.73;;;2.53;;
6354;SDS011;3210;48.708;9.030;2022-10-18T17:04:00;11.73;;;2.37;;
6354;SDS011;3210;48.708;9.030;2022-10-18T17:06:28;4.13;;;2.43;;
6354;SDS011;3210;48.708;9.030;2022-10-18T17:08:58;7.23;;;2.70;;
6354;SDS011;3210;48.708;9.030;2022-10-18T17:11:26;6.40;;;2.00;;
6354;SDS011;3210;48.708;9.030;2022-10-18T17:13:53;6.23;;;2.60;;
6354;SDS011;3210;48.708;9.030;2022-10-18T17:16:22;6.20;;;2.20;;
6354;SDS011;3210;48.708;9.030;2022-10-18T17:18:52;3.43;;;2.37;;
6354;SDS011;3210;48.708;9.030;2022-10-18T17:21:20;11.90;;;2.63;;
6354;SDS011;3210;48.708;9.030;2022-10-18T17:23:47;5.00;;;2.40;;
6354;SDS011;3210;48.708;9.030;2022-10-18T17:26:14;16.93;;;3.00;;
6354;SDS011;3210;48.708;9.030;2022-10-18T17:28:43;7.67;;;2.90;;
6354;SDS011;3210;48.708;9.030;2022-10-18T17:31:10;15.60;;;3.50;;
6354;SDS011;3210;48.708;9.030;2022-10-18T17:33:40;21.50;;;3.43;;
6354;SDS011;3210;48.708;9.030;2022-10-18T17:36:08;19.20;;;3.00;;
6354;SDS011;3210;48.708;9.030;2022-10-18T17:38:35;5.10;;;2.93;;
6354;SDS011;3210;48.708;9.030;2022-10-18T17:41:04;7.13;;;2.73;;
6354;SDS011;3210;48.708;9.030;2022-10-18T17:43:32;13.50;;;3.37;;
6354;SDS011;3210;48.708;9.030;2022-10-18T17:45:58;12.30;;;2.80;;
6354;SDS011;3210;48.708;9.030;2022-10-18T17:48:25;6.73;;;2.80;;